createdAt,value
2019-02-23T00:00:29.795Z,28.40
2019-02-23T00:02:58.343Z,29.43
2019-02-23T00:05:26.847Z,23.13
2019-02-23T00:07:55.396Z,23.43
2019-02-23T00:10:23.983Z,27.00
2019-02-23T00:12:52.603Z,20.97
2019-02-23T00:15:21.260Z,25.93
2019-02-23T00:17:49.808Z,30.50
2019-02-23T00:20:18.453Z,23.90
2019-02-23T00:22:47.003Z,27.43
2019-02-23T00:25:15.589Z,26.63
2019-02-23T00:27:44.207Z,24.43
2019-02-23T00:30:12.852Z,22.77
2019-02-23T00:32:41.409Z,19.97
2019-02-23T00:35:09.999Z,19.20
2019-02-23T00:37:38.553Z,23.33
2019-02-23T00:40:07.767Z,27.57
2019-02-23T00:42:36.332Z,20.33
2019-02-23T00:45:05.246Z,24.77
2019-02-23T00:47:33.828Z,25.53
2019-02-23T00:50:45.088Z,28.17
2019-02-23T00:53:13.643Z,33.17
2019-02-23T00:55:42.223Z,27.67
2019-02-23T00:58:10.781Z,28.13
2019-02-23T01:00:39.369Z,28.50
2019-02-23T01:03:07.942Z,28.07
2019-02-23T01:05:36.595Z,28.97
2019-02-23T01:08:05.152Z,25.53
2019-02-23T01:10:33.744Z,28.60
2019-02-23T01:13:02.297Z,28.50
2019-02-23T01:15:30.947Z,29.40
2019-02-23T01:17:59.574Z,26.63
2019-02-23T01:20:28.147Z,28.07
2019-02-23T01:22:56.791Z,25.47
2019-02-23T01:25:25.352Z,25.87
2019-02-23T01:27:53.936Z,25.43
2019-02-23T01:30:22.597Z,28.63
2019-02-23T01:32:51.313Z,26.67
2019-02-23T01:35:19.967Z,25.60
2019-02-23T01:37:48.626Z,27.03
2019-02-23T01:40:17.243Z,28.03
2019-02-23T01:42:45.864Z,27.00
2019-02-23T01:45:14.489Z,29.13
2019-02-23T01:47:43.068Z,31.13
2019-02-23T01:50:12.675Z,26.80
2019-02-23T01:52:41.391Z,26.80
2019-02-23T01:55:10.118Z,33.30
2019-02-23T01:57:38.764Z,27.07
2019-02-23T02:00:12.544Z,27.10
2019-02-23T02:02:41.272Z,27.57
2019-02-23T02:05:12.163Z,29.73
2019-02-23T02:07:40.752Z,28.03
2019-02-23T02:10:09.489Z,28.50
2019-02-23T02:12:38.487Z,31.90
2019-02-23T02:15:10.213Z,32.40
2019-02-23T02:17:38.816Z,29.60
2019-02-23T02:23:48.260Z,28.50
2019-02-23T02:26:16.850Z,29.30
2019-02-23T02:28:45.427Z,27.43
2019-02-23T02:31:13.989Z,27.77
2019-02-23T02:34:05.186Z,25.87
2019-02-23T02:36:33.793Z,26.57
2019-02-23T02:39:02.363Z,26.97
2019-02-23T02:41:30.929Z,27.73
2019-02-23T02:43:59.557Z,26.33
2019-02-23T02:46:28.089Z,25.83
2019-02-23T02:48:56.703Z,30.57
2019-02-23T02:51:25.248Z,22.80
2019-02-23T02:53:53.833Z,33.13
2019-02-23T02:56:22.416Z,28.00
2019-02-23T02:58:50.993Z,26.60
2019-02-23T03:01:19.561Z,30.67
2019-02-23T03:03:48.146Z,28.00
2019-02-23T03:06:16.703Z,29.57
2019-02-23T03:08:45.293Z,30.60
2019-02-23T03:11:13.861Z,33.70
2019-02-23T03:13:42.454Z,30.27
2019-02-23T03:16:11.027Z,33.73
2019-02-23T03:18:39.616Z,32.20
2019-02-23T03:21:08.181Z,32.37
2019-02-23T03:23:36.783Z,30.23
2019-02-23T03:26:05.345Z,29.37
2019-02-23T03:28:33.947Z,33.67
2019-02-23T03:31:02.502Z,31.53
2019-02-23T03:33:31.102Z,31.87
2019-02-23T03:35:59.663Z,30.13
2019-02-23T03:38:29.182Z,31.00
2019-02-23T03:40:57.730Z,25.87
2019-02-23T03:43:26.327Z,29.70
2019-02-23T03:45:54.976Z,25.80
2019-02-23T03:48:23.552Z,24.20
2019-02-23T03:50:52.112Z,28.13
2019-02-23T03:53:20.704Z,35.93
2019-02-23T03:55:49.336Z,27.47
2019-02-23T03:58:18.002Z,27.20
2019-02-23T04:00:46.567Z,29.40
2019-02-23T04:03:15.159Z,27.87
2019-02-23T04:05:43.722Z,27.30
2019-02-23T04:08:12.317Z,32.27
2019-02-23T04:10:40.876Z,33.43
2019-02-23T04:13:09.485Z,27.03
2019-02-23T04:15:38.329Z,30.73
2019-02-23T04:18:06.993Z,25.13
2019-02-23T04:20:35.560Z,33.33
2019-02-23T04:23:04.165Z,29.53
2019-02-23T04:25:32.733Z,34.37
2019-02-23T04:28:01.330Z,28.13
2019-02-23T04:30:29.891Z,29.73
2019-02-23T04:32:58.465Z,31.30
2019-02-23T04:35:27.122Z,33.80
2019-02-23T04:37:55.749Z,33.97
2019-02-23T04:40:24.347Z,34.30
2019-02-23T04:42:52.977Z,38.63
2019-02-23T04:45:21.634Z,32.03
2019-02-23T04:47:50.282Z,28.47
2019-02-23T04:50:18.868Z,34.80
2019-02-23T04:52:47.442Z,33.20
2019-02-23T04:55:16.029Z,31.70
2019-02-23T04:57:44.600Z,34.43
2019-02-23T05:00:15.029Z,29.93
2019-02-23T05:02:43.602Z,31.80
2019-02-23T05:05:12.258Z,46.87
2019-02-23T05:07:40.841Z,33.33
2019-02-23T05:10:09.660Z,34.00
2019-02-23T05:12:38.234Z,36.87
2019-02-23T05:15:09.064Z,31.83
2019-02-23T05:17:37.630Z,32.10
2019-02-23T05:20:06.866Z,29.93
2019-02-23T05:22:35.420Z,29.50
2019-02-23T05:25:04.658Z,29.83
2019-02-23T05:27:33.284Z,34.53
2019-02-23T05:30:01.892Z,30.00
2019-02-23T05:32:30.445Z,34.43
2019-02-23T05:34:59.035Z,34.73
2019-02-23T05:37:27.606Z,30.00
2019-02-23T05:39:56.211Z,36.53
2019-02-23T05:42:24.779Z,41.63
2019-02-23T05:44:53.371Z,29.87
2019-02-23T05:47:21.933Z,33.80
2019-02-23T05:49:50.580Z,32.23
2019-02-23T05:52:19.149Z,27.77
2019-02-23T05:54:47.745Z,32.83
2019-02-23T05:57:16.337Z,31.47
2019-02-23T05:59:45.007Z,33.50
2019-02-23T06:02:13.574Z,32.80
2019-02-23T06:04:42.171Z,31.93
2019-02-23T06:07:10.741Z,33.83
2019-02-23T06:09:39.343Z,37.63
2019-02-23T06:12:08.049Z,40.17
2019-02-23T06:14:36.637Z,31.63
2019-02-23T06:17:05.216Z,30.93
2019-02-23T06:19:33.800Z,34.53
2019-02-23T06:22:02.374Z,38.40
2019-02-23T06:24:30.961Z,37.83
2019-02-23T06:26:59.528Z,33.57
2019-02-23T06:29:28.113Z,37.27
2019-02-23T06:31:56.672Z,30.27
2019-02-23T06:34:25.260Z,31.57
2019-02-23T06:36:53.825Z,34.73
2019-02-23T06:39:22.393Z,33.13
2019-02-23T06:41:51.080Z,29.30
2019-02-23T06:44:19.797Z,27.63
2019-02-23T06:46:48.446Z,29.73
2019-02-23T06:49:17.077Z,31.80
2019-02-23T06:51:45.661Z,28.73
2019-02-23T06:54:14.237Z,28.90
2019-02-23T06:56:42.817Z,25.90
2019-02-23T06:59:11.457Z,29.13
2019-02-23T07:01:40.031Z,23.70
2019-02-23T07:04:08.597Z,26.43
2019-02-23T07:06:37.181Z,26.70
2019-02-23T07:09:05.880Z,25.80
2019-02-23T07:11:34.466Z,23.67
2019-02-23T07:14:03.027Z,27.53
2019-02-23T07:16:31.611Z,33.20
2019-02-23T07:19:00.164Z,29.97
2019-02-23T07:21:28.752Z,25.83
2019-02-23T07:23:57.310Z,28.30
2019-02-23T07:26:25.900Z,24.97
2019-02-23T07:28:54.463Z,27.20
2019-02-23T07:31:23.036Z,21.97
2019-02-23T07:33:51.592Z,25.93
2019-02-23T07:36:20.192Z,23.27
2019-02-23T07:38:48.752Z,27.50
2019-02-23T07:41:17.324Z,27.87
2019-02-23T07:43:45.893Z,26.97
2019-02-23T07:46:14.481Z,27.23
2019-02-23T07:48:43.049Z,26.63
2019-02-23T07:51:11.633Z,23.47
2019-02-23T07:53:40.192Z,19.97
2019-02-23T07:56:08.776Z,24.70
2019-02-23T07:58:37.339Z,23.67
2019-02-23T08:01:05.993Z,19.77
2019-02-23T08:03:34.543Z,21.50
2019-02-23T08:06:03.194Z,21.57
2019-02-23T08:08:31.748Z,20.40
2019-02-23T08:11:00.333Z,19.07
2019-02-23T08:13:28.897Z,19.73
2019-02-23T08:15:57.485Z,17.33
2019-02-23T08:18:26.058Z,21.53
2019-02-23T08:20:54.636Z,17.13
2019-02-23T08:23:23.236Z,22.30
2019-02-23T08:25:51.826Z,20.13
2019-02-23T08:28:20.404Z,17.97
2019-02-23T08:30:48.985Z,20.67
2019-02-23T08:33:17.539Z,17.40
2019-02-23T08:35:46.098Z,19.40
2019-02-23T08:38:14.698Z,18.30
2019-02-23T08:40:43.262Z,18.27
2019-02-23T08:43:11.833Z,17.80
2019-02-23T08:45:40.392Z,15.97
2019-02-23T08:48:08.981Z,26.13
2019-02-23T08:50:37.609Z,14.83
2019-02-23T08:53:06.185Z,36.77
2019-02-23T08:55:34.749Z,14.37
2019-02-23T08:58:03.332Z,17.63
2019-02-23T09:00:31.884Z,20.20
2019-02-23T09:03:00.468Z,18.33
2019-02-23T09:05:29.269Z,14.87
2019-02-23T09:07:57.865Z,15.77
2019-02-23T09:10:26.503Z,14.10
2019-02-23T09:12:55.077Z,17.97
2019-02-23T09:15:23.625Z,13.97
2019-02-23T09:17:52.204Z,13.83
2019-02-23T09:20:28.678Z,13.70
2019-02-23T09:22:59.756Z,14.47
2019-02-23T09:25:21.176Z,14.00
2019-02-23T09:27:49.758Z,10.53
2019-02-23T09:30:18.390Z,11.33
2019-02-23T09:32:46.975Z,10.07
2019-02-23T09:35:15.535Z,12.20
2019-02-23T09:37:44.120Z,11.70
2019-02-23T09:40:15.220Z,14.03
2019-02-23T09:42:43.798Z,13.97
2019-02-23T09:45:12.790Z,11.87
2019-02-23T09:47:41.365Z,16.33
2019-02-23T09:50:10.064Z,11.37
2019-02-23T09:52:38.644Z,10.70
2019-02-23T09:55:08.820Z,9.43
2019-02-23T09:57:37.387Z,9.60
2019-02-23T10:00:09.262Z,8.47
2019-02-23T10:02:37.844Z,10.53
2019-02-23T10:05:07.437Z,9.97
2019-02-23T10:07:36.029Z,9.50
2019-02-23T10:10:06.897Z,13.43
2019-02-23T10:12:35.485Z,10.33
2019-02-23T10:15:05.997Z,10.10
2019-02-23T10:17:34.585Z,10.10
2019-02-23T10:20:03.216Z,22.27
2019-02-23T10:22:31.799Z,10.73
2019-02-23T10:25:00.368Z,11.07
2019-02-23T10:27:28.949Z,11.47
2019-02-23T10:29:57.498Z,12.00
2019-02-23T10:32:26.077Z,17.07
2019-02-23T10:34:54.631Z,10.63
2019-02-23T10:37:23.216Z,10.10
2019-02-23T10:39:51.782Z,14.30
2019-02-23T10:42:20.374Z,13.57
2019-02-23T10:44:48.941Z,12.03
2019-02-23T10:47:17.511Z,13.23
2019-02-23T10:49:46.084Z,10.80
2019-02-23T10:52:14.713Z,9.40
2019-02-23T10:54:43.349Z,9.90
2019-02-23T10:57:11.902Z,11.00
2019-02-23T10:59:40.481Z,10.37
2019-02-23T11:02:09.092Z,8.23
2019-02-23T11:04:37.804Z,9.53
2019-02-23T11:07:06.438Z,8.27
2019-02-23T11:09:36.643Z,8.10
2019-02-23T11:12:05.433Z,7.07
2019-02-23T11:14:34.009Z,7.10
2019-02-23T11:17:02.703Z,10.23
2019-02-23T11:19:31.355Z,7.07
2019-02-23T11:22:00.049Z,8.17
2019-02-23T11:24:28.704Z,5.50
2019-02-23T11:26:57.399Z,8.30
2019-02-23T11:29:26.004Z,5.70
2019-02-23T11:31:54.592Z,6.70
2019-02-23T11:34:23.167Z,5.33
2019-02-23T11:36:51.724Z,7.90
2019-02-23T11:39:20.298Z,8.53
2019-02-23T11:41:48.854Z,5.43
2019-02-23T11:44:17.453Z,7.67
2019-02-23T11:47:00.032Z,6.33
2019-02-23T11:49:16.285Z,5.50
2019-02-23T11:51:44.870Z,5.97
2019-02-23T11:54:13.528Z,6.57
2019-02-23T11:56:42.063Z,6.00
2019-02-23T11:59:10.596Z,6.40
2019-02-23T12:01:39.174Z,10.23
2019-02-23T12:04:07.806Z,6.63
2019-02-23T12:06:36.383Z,7.80
2019-02-23T12:09:06.189Z,5.40
2019-02-23T12:11:34.765Z,9.70
2019-02-23T12:14:03.325Z,7.37
2019-02-23T12:16:31.916Z,6.53
2019-02-23T12:19:00.494Z,5.43
2019-02-23T12:21:29.053Z,8.17
2019-02-23T12:24:05.719Z,6.77
2019-02-23T12:26:27.826Z,6.30
2019-02-23T12:28:56.372Z,5.40
2019-02-23T12:31:25.026Z,9.37
2019-02-23T12:33:53.580Z,6.03
2019-02-23T12:36:22.223Z,8.67
2019-02-23T12:38:51.025Z,6.53
2019-02-23T12:41:19.660Z,6.37
2019-02-23T12:43:48.216Z,9.23
2019-02-23T12:46:16.802Z,6.63
2019-02-23T12:48:45.364Z,8.00
2019-02-23T12:51:13.924Z,7.13
2019-02-23T12:53:42.490Z,6.13
2019-02-23T12:56:11.141Z,8.63
2019-02-23T12:58:39.693Z,5.90
2019-02-23T13:01:08.271Z,7.30
2019-02-23T13:03:36.825Z,8.10
2019-02-23T13:06:05.562Z,10.00
2019-02-23T13:12:42.624Z,8.40
2019-02-23T13:19:08.707Z,6.93
2019-02-23T13:21:40.356Z,9.53
2019-02-23T13:24:27.713Z,13.10
2019-02-23T13:27:00.445Z,19.10
2019-02-23T13:29:57.743Z,10.33
2019-02-23T13:32:32.160Z,9.33
2019-02-23T13:35:20.178Z,6.60
2019-02-23T13:38:09.007Z,9.33
2019-02-23T13:44:55.555Z,10.37
2019-02-23T13:47:46.856Z,16.07
2019-02-23T13:50:35.197Z,7.37
2019-02-23T13:53:31.223Z,9.93
2019-02-23T13:56:20.775Z,7.80
2019-02-23T13:59:00.803Z,7.37
2019-02-23T14:01:35.160Z,10.33
2019-02-23T14:04:09.367Z,19.03
2019-02-23T14:06:50.126Z,10.30
2019-02-23T14:09:38.429Z,11.70
2019-02-23T14:12:28.528Z,15.20
2019-02-23T14:15:17.927Z,5.50
2019-02-23T14:18:03.864Z,5.47
2019-02-23T14:20:41.150Z,6.40
2019-02-23T14:23:24.586Z,9.90
2019-02-23T14:26:10.539Z,7.40
2019-02-23T14:29:19.565Z,7.20
2019-02-23T14:31:51.189Z,6.30
2019-02-23T14:34:22.846Z,10.90
2019-02-23T14:37:03.216Z,5.50
2019-02-23T14:39:46.620Z,5.37
2019-02-23T14:42:18.240Z,5.67
2019-02-23T14:44:58.883Z,6.93
2019-02-23T14:47:36.564Z,6.63
2019-02-23T14:50:36.764Z,5.23
2019-02-23T14:53:41.950Z,5.20
2019-02-23T14:56:44.676Z,7.67
2019-02-23T14:59:16.318Z,7.43
2019-02-23T15:02:13.262Z,13.53
2019-02-23T15:04:59.619Z,6.83
2019-02-23T15:07:36.868Z,11.93
2019-02-23T15:10:40.129Z,28.30
2019-02-23T15:13:17.576Z,7.80
2019-02-23T15:15:58.231Z,9.67
2019-02-23T15:18:29.930Z,6.77
2019-02-23T15:21:07.185Z,4.90
2019-02-23T15:24:04.201Z,5.90
2019-02-23T15:26:44.559Z,4.10
2019-02-23T15:29:35.798Z,4.83
2019-02-23T15:32:28.709Z,4.57
2019-02-23T15:35:09.292Z,8.33
2019-02-23T15:38:09.827Z,5.87
2019-02-23T15:40:55.955Z,5.50
2019-02-23T15:43:32.621Z,5.83
2019-02-23T15:46:20.765Z,4.37
2019-02-23T15:48:58.177Z,4.93
2019-02-23T15:51:26.778Z,9.67
2019-02-23T15:53:55.340Z,5.07
2019-02-23T15:56:23.972Z,5.43
2019-02-23T15:58:52.524Z,6.83
2019-02-23T16:01:21.091Z,6.30
2019-02-23T16:03:49.725Z,6.63
2019-02-23T16:06:18.294Z,5.90
2019-02-23T16:08:46.830Z,9.70
2019-02-23T16:11:15.418Z,9.80
2019-02-23T16:13:43.943Z,6.80
2019-02-23T16:16:12.555Z,6.10
2019-02-23T16:18:41.065Z,6.00
2019-02-23T16:21:09.694Z,8.97
2019-02-23T16:23:38.259Z,8.13
2019-02-23T16:26:06.828Z,10.60
2019-02-23T16:32:16.653Z,8.90
2019-02-23T16:34:45.194Z,10.87
2019-02-23T16:37:13.774Z,11.07
2019-02-23T16:39:42.369Z,10.77
2019-02-23T16:42:10.886Z,5.13
2019-02-23T16:44:39.479Z,4.60
2019-02-23T16:47:07.994Z,5.33
2019-02-23T16:49:36.541Z,5.20
2019-02-23T16:52:05.124Z,7.57
2019-02-23T16:54:33.667Z,6.43
2019-02-23T16:57:02.243Z,6.63
2019-02-23T16:59:31.656Z,8.60
2019-02-23T17:02:00.219Z,8.77
2019-02-23T17:04:28.762Z,5.27
2019-02-23T17:06:57.303Z,8.90
2019-02-23T17:09:26.047Z,6.27
2019-02-23T17:11:54.535Z,8.83
2019-02-23T17:14:23.178Z,7.87
2019-02-23T17:16:51.731Z,6.27
2019-02-23T17:19:20.299Z,5.77
2019-02-23T17:21:48.843Z,6.77
2019-02-23T17:24:17.412Z,7.80
2019-02-23T17:26:45.955Z,7.80
2019-02-23T17:29:14.697Z,8.80
2019-02-23T17:31:43.248Z,10.60
2019-02-23T17:34:11.823Z,6.47
2019-02-23T17:36:40.367Z,9.13
2019-02-23T17:39:10.569Z,5.40
2019-02-23T17:41:39.101Z,13.30
2019-02-23T17:44:07.672Z,6.30
2019-02-23T17:46:36.211Z,8.27
2019-02-23T17:49:04.848Z,6.73
2019-02-23T17:51:33.389Z,7.60
2019-02-23T17:54:01.951Z,8.87
2019-02-23T17:56:30.429Z,7.27
2019-02-23T17:58:58.998Z,8.57
2019-02-23T18:01:27.550Z,10.70
2019-02-23T18:03:56.198Z,9.43
2019-02-23T18:06:24.742Z,6.40
2019-02-23T18:08:53.316Z,6.80
2019-02-23T18:11:21.883Z,5.50
2019-02-23T18:13:50.591Z,9.63
2019-02-23T18:16:19.249Z,6.40
2019-02-23T18:18:47.836Z,7.00
2019-02-23T18:21:16.368Z,6.20
2019-02-23T18:23:45.006Z,7.00
2019-02-23T18:26:20.931Z,12.57
2019-02-23T18:28:43.827Z,22.97
2019-02-23T18:31:12.378Z,27.07
2019-02-23T18:33:40.983Z,28.83
2019-02-23T18:36:09.619Z,22.50
2019-02-23T18:38:38.226Z,16.83
2019-02-23T18:41:06.822Z,12.70
2019-02-23T18:43:35.383Z,16.40
2019-02-23T18:46:04.100Z,21.37
2019-02-23T18:48:32.691Z,19.53
2019-02-23T18:51:01.253Z,15.07
2019-02-23T18:53:29.972Z,13.00
2019-02-23T18:55:58.635Z,9.90
2019-02-23T18:58:27.255Z,11.47
2019-02-23T19:00:55.826Z,12.70
2019-02-23T19:03:24.371Z,9.10
2019-02-23T19:05:53.008Z,10.10
2019-02-23T19:08:21.663Z,11.80
2019-02-23T19:10:50.222Z,8.90
2019-02-23T19:13:18.771Z,9.00
2019-02-23T19:15:49.122Z,12.20
2019-02-23T19:18:18.918Z,14.97
2019-02-23T19:20:47.570Z,14.13
2019-02-23T19:23:16.131Z,19.60
2019-02-23T19:25:44.717Z,18.67
2019-02-23T19:28:13.326Z,16.53
2019-02-23T19:30:41.834Z,18.57
2019-02-23T19:33:10.388Z,21.27
2019-02-23T19:35:38.977Z,26.43
2019-02-23T19:38:07.602Z,22.77
2019-02-23T19:40:36.220Z,26.90
2019-02-23T19:43:04.834Z,35.83
2019-02-23T19:45:33.359Z,40.17
2019-02-23T19:48:01.928Z,37.83
2019-02-23T19:50:36.578Z,37.97
2019-02-23T19:53:05.403Z,32.80
2019-02-23T19:55:53.330Z,23.10
2019-02-23T19:58:41.302Z,13.27
2019-02-23T20:01:09.943Z,10.47
2019-02-23T20:03:38.614Z,13.13
2019-02-23T20:06:07.190Z,11.40
2019-02-23T20:08:35.820Z,9.67
2019-02-23T20:11:04.459Z,15.00
2019-02-23T20:13:33.016Z,11.60
2019-02-23T20:16:01.758Z,12.57
2019-02-23T20:18:30.318Z,11.77
2019-02-23T20:20:58.969Z,16.13
2019-02-23T20:23:27.526Z,13.17
2019-02-23T20:25:56.097Z,12.83
2019-02-23T20:28:24.682Z,14.40
2019-02-23T20:30:53.271Z,15.13
2019-02-23T20:33:21.891Z,17.23
2019-02-23T20:35:50.602Z,22.27
2019-02-23T20:38:19.322Z,21.13
2019-02-23T20:40:47.913Z,15.87
2019-02-23T20:43:35.880Z,13.20
2019-02-23T20:46:04.686Z,13.43
2019-02-23T20:48:33.286Z,16.40
2019-02-23T20:51:01.864Z,15.10
2019-02-23T20:53:30.418Z,18.43
2019-02-23T20:55:59.069Z,14.57
2019-02-23T20:58:27.618Z,14.33
2019-02-23T21:00:56.194Z,13.77
2019-02-23T21:03:24.750Z,13.83
2019-02-23T21:05:53.426Z,17.50
2019-02-23T21:08:22.015Z,38.73
2019-02-23T21:10:50.601Z,29.60
2019-02-23T21:13:19.154Z,32.73
2019-02-23T21:15:47.727Z,16.90
2019-02-23T21:18:16.283Z,16.13
2019-02-23T21:20:44.863Z,11.83
2019-02-23T21:23:13.406Z,8.60
2019-02-23T21:25:41.979Z,12.00
2019-02-23T21:28:10.597Z,12.60
2019-02-23T21:30:39.180Z,13.60
2019-02-23T21:33:07.740Z,15.83
2019-02-23T21:35:36.330Z,12.53
2019-02-23T21:38:04.931Z,10.80
2019-02-23T21:40:33.658Z,12.43
2019-02-23T21:43:02.199Z,12.40
2019-02-23T21:45:30.887Z,7.33
2019-02-23T21:47:59.459Z,11.47
2019-02-23T21:50:28.147Z,14.13
2019-02-23T21:52:56.740Z,10.73
2019-02-23T21:55:25.347Z,9.93
2019-02-23T21:57:53.881Z,8.67
2019-02-23T22:00:22.423Z,12.47
2019-02-23T22:02:51.063Z,8.60
2019-02-23T22:05:19.708Z,15.43
2019-02-23T22:07:48.302Z,12.00
2019-02-23T22:10:16.836Z,10.57
2019-02-23T22:12:45.411Z,14.13
2019-02-23T22:15:14.031Z,18.73
2019-02-23T22:17:42.686Z,18.53
2019-02-23T22:20:11.324Z,12.37
2019-02-23T22:22:39.887Z,16.30
2019-02-23T22:25:08.507Z,20.00
2019-02-23T22:27:37.079Z,18.40
2019-02-23T22:30:07.071Z,23.33
2019-02-23T22:32:35.655Z,26.33
2019-02-23T22:35:04.750Z,33.47
2019-02-23T22:37:33.644Z,44.13
2019-02-23T22:40:02.303Z,31.93
2019-02-23T22:42:30.890Z,30.63
2019-02-23T22:44:59.434Z,20.10
2019-02-23T22:47:28.002Z,20.83
2019-02-23T22:49:56.623Z,17.50
2019-02-23T22:52:25.207Z,22.07
2019-02-23T22:54:54.003Z,21.30
2019-02-23T22:57:22.579Z,15.53
2019-02-23T22:59:51.211Z,20.47
2019-02-23T23:02:19.918Z,16.30
2019-02-23T23:04:48.479Z,17.07
2019-02-23T23:07:16.980Z,19.33
2019-02-23T23:09:45.543Z,17.20
2019-02-23T23:12:14.186Z,15.47
2019-02-23T23:14:42.739Z,11.67
2019-02-23T23:17:11.320Z,16.57
2019-02-23T23:19:39.870Z,14.97
2019-02-23T23:22:08.439Z,16.10
2019-02-23T23:24:37.062Z,19.23
2019-02-23T23:27:05.634Z,12.93
2019-02-23T23:29:34.192Z,13.23
2019-02-23T23:32:02.739Z,17.67
2019-02-23T23:34:31.327Z,15.53
2019-02-23T23:36:59.889Z,19.20
2019-02-23T23:39:28.454Z,18.67
2019-02-23T23:41:57.014Z,22.27
2019-02-23T23:44:25.675Z,25.63
2019-02-23T23:46:54.226Z,26.07
2019-02-23T23:49:22.795Z,20.37
2019-02-23T23:51:51.346Z,16.43
2019-02-23T23:54:19.933Z,18.73
2019-02-23T23:56:48.488Z,18.03
2019-02-23T23:59:17.068Z,19.27
